Time;durP1;ratioP1;P1;durP2;ratioP2;P2;SDS_P1;SDS_P2;PMS_P1;PMS_P2;Temp;Humidity;BMP_temperature;BMP_pressure;BME280_temperature;BME280_humidity;BME280_pressure;Samples;Min_cycle;Max_cycle;Signal;HPM_P1;HPM_P2
2022/06/21 00:01:18;;;;;;;6.38;3.05;;;11.10;99.90;;;;;;5012126;28;20037;-79
2022/06/21 00:03:45;;;;;;;10.90;3.10;;;11.10;99.90;;;;;;5021421;28;20040;-79
2022/06/21 00:06:17;;;;;;;7.50;2.55;;;11.10;99.90;;;;;;4989999;28;20131;-78
2022/06/21 00:08:43;;;;;;;9.63;3.10;;;11.10;99.90;;;;;;5020900;28;20136;-78
2022/06/21 00:11:30;;;;;;;7.35;2.67;;;11.10;99.90;;;;;;5028816;28;20133;-79
2022/06/21 00:13:56;;;;;;;9.00;2.70;;;11.10;99.90;;;;;;5039116;28;20103;-78
2022/06/21 00:16:23;;;;;;;9.40;2.88;;;11.00;99.90;;;;;;5036280;28;20042;-78
2022/06/21 00:18:50;;;;;;;11.80;3.30;;;11.00;99.90;;;;;;5024495;28;20447;-79
2022/06/21 00:21:26;;;;;;;11.07;4.22;;;11.00;99.90;;;;;;5029973;28;20443;-78
2022/06/21 00:23:53;;;;;;;7.15;3.17;;;11.00;99.90;;;;;;5030869;28;20048;-79
2022/06/21 00:26:21;;;;;;;9.07;3.45;;;11.00;99.90;;;;;;5007959;28;20045;-79
2022/06/21 00:28:46;;;;;;;15.13;3.53;;;10.90;99.90;;;;;;5012218;28;20081;-79
2022/06/21 00:31:19;;;;;;;10.60;3.25;;;10.90;99.90;;;;;;4991539;28;20080;-79
2022/06/21 00:33:46;;;;;;;8.02;2.63;;;10.80;99.90;;;;;;5030866;28;20231;-79
2022/06/21 00:36:17;;;;;;;10.40;3.05;;;10.80;99.90;;;;;;5016833;28;20041;-79
2022/06/21 00:38:43;;;;;;;5.18;3.00;;;10.80;99.90;;;;;;5041044;28;20174;-79
2022/06/21 00:41:11;;;;;;;5.55;3.03;;;10.80;99.90;;;;;;5018533;28;20069;-80
2022/06/21 00:43:46;;;;;;;6.68;2.80;;;10.80;99.90;;;;;;5016685;28;20034;-79
2022/06/21 00:46:31;;;;;;;7.88;2.72;;;10.80;99.90;;;;;;5023205;28;20045;-78
2022/06/21 00:49:01;;;;;;;6.40;2.85;;;10.70;99.90;;;;;;5013365;28;20075;-79
2022/06/21 00:51:41;;;;;;;7.57;3.03;;;10.70;99.90;;;;;;5028583;28;20073;-79
2022/06/21 00:54:23;;;;;;;5.18;2.63;;;10.70;99.90;;;;;;5018062;28;20037;-78
2022/06/21 00:57:02;;;;;;;8.73;2.88;;;10.60;99.90;;;;;;5012931;28;20041;-79
2022/06/21 00:59:32;;;;;;;10.27;3.50;;;10.60;99.90;;;;;;5021580;28;20120;-79
2022/06/21 01:02:02;;;;;;;13.18;3.22;;;10.60;99.90;;;;;;5033319;28;20139;-79
2022/06/21 01:04:37;;;;;;;5.85;2.53;;;10.60;99.90;;;;;;5033633;28;20071;-79
2022/06/21 01:07:07;;;;;;;7.65;2.92;;;10.60;99.90;;;;;;5005204;28;20053;-79
2022/06/21 01:09:41;;;;;;;7.63;2.80;;;10.60;99.90;;;;;;4998563;28;20059;-79
2022/06/21 01:12:14;;;;;;;8.23;3.40;;;10.50;99.90;;;;;;5031492;28;20128;-79
2022/06/21 01:14:52;;;;;;;6.18;3.33;;;10.50;99.90;;;;;;5002877;28;20145;-79
2022/06/21 01:17:19;;;;;;;7.07;3.13;;;10.50;99.90;;;;;;5018632;28;20033;-78
2022/06/21 01:19:56;;;;;;;6.22;2.72;;;10.50;99.90;;;;;;5028085;28;20045;-79
2022/06/21 01:22:41;;;;;;;5.97;2.80;;;10.50;99.90;;;;;;5031625;28;20172;-79
2022/06/21 01:25:25;;;;;;;9.23;3.10;;;10.50;99.90;;;;;;5041280;28;20066;-79
2022/06/21 01:27:55;;;;;;;8.57;2.88;;;10.50;99.90;;;;;;5024448;28;20042;-79
2022/06/21 01:30:26;;;;;;;59.47;4.55;;;10.40;99.90;;;;;;4991941;28;20045;-78
2022/06/21 01:32:52;;;;;;;8.82;2.95;;;10.40;99.90;;;;;;5015346;28;20393;-78
2022/06/21 01:35:24;;;;;;;5.18;2.50;;;10.30;99.90;;;;;;5003824;28;20083;-79
2022/06/21 01:37:50;;;;;;;9.52;3.45;;;10.30;99.90;;;;;;5028448;28;20053;-79
2022/06/21 01:40:21;;;;;;;7.10;3.13;;;10.30;99.90;;;;;;5013162;28;20040;-79
2022/06/21 01:42:50;;;;;;;9.43;3.33;;;10.30;99.90;;;;;;5011325;28;20037;-79
2022/06/21 01:45:23;;;;;;;7.90;3.50;;;10.20;99.90;;;;;;5023319;28;20390;-79
2022/06/21 01:47:50;;;;;;;;;;;10.20;99.90;;;;;;5028653;28;20041;-78
2022/06/21 01:50:17;;;;;;;7.05;3.38;;;10.10;99.90;;;;;;5013117;28;19918;-79
2022/06/21 01:52:47;;;;;;;9.07;3.58;;;10.10;99.90;;;;;;5013090;28;20053;-79
2022/06/21 01:55:42;;;;;;;14.15;3.53;;;10.00;99.90;;;;;;5016360;28;20081;-79
2022/06/21 01:58:12;;;;;;;11.50;3.47;;;10.00;99.90;;;;;;5018143;28;20540;-79
2022/06/21 02:00:42;;;;;;;9.02;3.63;;;10.00;99.90;;;;;;5018975;28;20049;-79
2022/06/21 02:03:15;;;;;;;9.40;3.22;;;10.00;99.90;;;;;;5017469;28;20076;-79
2022/06/21 02:05:47;;;;;;;9.18;2.83;;;10.00;99.90;;;;;;5016957;28;20150;-79
2022/06/21 02:08:16;;;;;;;9.05;3.20;;;10.00;99.90;;;;;;5034045;28;20069;-79
2022/06/21 02:10:52;;;;;;;7.88;3.47;;;9.90;99.90;;;;;;5029623;28;20113;-79
2022/06/21 02:13:27;;;;;;;10.85;3.13;;;9.90;99.90;;;;;;5019691;28;20063;-79
2022/06/21 02:15:58;;;;;;;10.85;3.30;;;9.90;99.90;;;;;;5018825;28;20047;-79
2022/06/21 02:18:27;;;;;;;9.40;3.67;;;9.90;99.90;;;;;;5021356;28;20390;-79
2022/06/21 02:21:15;;;;;;;9.90;3.70;;;9.80;99.90;;;;;;5034376;28;20121;-79
2022/06/21 02:23:41;;;;;;;8.57;3.70;;;9.80;99.90;;;;;;5018357;28;20041;-79
2022/06/21 02:26:10;;;;;;;11.93;3.72;;;9.80;99.90;;;;;;5010822;28;20197;-79
2022/06/21 02:28:37;;;;;;;8.10;3.80;;;9.80;99.90;;;;;;5026186;28;20037;-79
2022/06/21 02:31:02;;;;;;;5.50;3.53;;;9.70;99.90;;;;;;5016351;28;20067;-79
2022/06/21 02:33:32;;;;;;;5.32;3.25;;;9.70;99.90;;;;;;5000990;28;20061;-79
2022/06/21 02:36:02;;;;;;;9.77;4.03;;;9.70;99.90;;;;;;5029522;28;20491;-79
2022/06/21 02:38:42;;;;;;;8.90;4.18;;;9.60;99.90;;;;;;5016304;28;20025;-79
2022/06/21 02:41:09;;;;;;;7.63;3.53;;;9.60;99.90;;;;;;5005814;28;20108;-79
2022/06/21 02:43:48;;;;;;;6.18;3.90;;;9.60;99.90;;;;;;5018317;28;20030;-79
2022/06/21 02:46:19;;;;;;;7.25;3.50;;;9.60;99.90;;;;;;5034118;28;20042;-80
2022/06/21 02:48:56;;;;;;;5.30;3.70;;;10.00;99.90;;;;;;5033643;28;20044;-79
2022/06/21 02:51:34;;;;;;;8.07;4.45;;;9.50;99.90;;;;;;5030230;28;20042;-80
2022/06/21 02:54:17;;;;;;;8.90;4.43;;;9.50;99.90;;;;;;5016917;28;20349;-79
2022/06/21 02:56:48;;;;;;;10.13;4.10;;;9.50;99.90;;;;;;5030127;28;20054;-80
2022/06/21 02:59:15;;;;;;;9.70;4.50;;;9.50;99.90;;;;;;5032221;28;20044;-80
2022/06/21 03:01:54;;;;;;;12.20;4.43;;;9.50;99.90;;;;;;5012085;28;20450;-79
2022/06/21 03:04:25;;;;;;;8.63;4.80;;;9.50;99.90;;;;;;5029423;28;20144;-79
2022/06/21 03:06:51;;;;;;;9.02;4.07;;;9.40;99.90;;;;;;5015938;28;20072;-79
2022/06/21 03:09:21;;;;;;;13.75;4.40;;;9.30;99.90;;;;;;5016335;28;20041;-79
2022/06/21 03:11:51;;;;;;;7.53;4.03;;;9.30;99.90;;;;;;5030688;28;20037;-79
2022/06/21 03:14:21;;;;;;;10.25;4.43;;;9.30;99.90;;;;;;5013677;28;20080;-79
2022/06/21 03:16:47;;;;;;;7.28;4.00;;;9.20;99.90;;;;;;5028985;28;20037;-79
2022/06/21 03:19:38;;;;;;;8.95;4.50;;;9.20;99.90;;;;;;5016431;28;20254;-79
2022/06/21 03:22:21;;;;;;;7.72;4.85;;;9.20;99.90;;;;;;5033399;28;20053;-79
2022/06/21 03:24:50;;;;;;;11.75;4.68;;;9.20;99.90;;;;;;5014079;28;20033;-79
2022/06/21 03:27:32;;;;;;;8.48;4.65;;;9.20;99.90;;;;;;5032509;28;20398;-79
2022/06/21 03:29:59;;;;;;;11.93;4.80;;;9.20;99.90;;;;;;5031722;28;20518;-79
2022/06/21 03:32:28;;;;;;;12.18;5.38;;;9.20;99.90;;;;;;5026794;28;20045;-79
2022/06/21 03:34:54;;;;;;;12.85;5.47;;;9.20;99.90;;;;;;5032163;28;20060;-79
2022/06/21 03:37:20;;;;;;;11.55;5.32;;;9.20;99.90;;;;;;4997302;28;20099;-79
2022/06/21 03:42:36;;;;;;;8.82;5.13;;;9.20;99.90;;;;;;5014032;28;20301;-79
2022/06/21 03:45:35;;;;;;;11.77;5.25;;;9.20;99.90;;;;;;5040748;28;20451;-79
2022/06/21 03:48:04;;;;;;;9.57;5.30;;;9.20;99.90;;;;;;5005616;28;20621;-79
2022/06/21 03:50:36;;;;;;;8.80;5.60;;;9.20;99.90;;;;;;5042677;28;20041;-79
2022/06/21 03:53:07;;;;;;;;;;;9.20;99.90;;;;;;5025298;28;20045;-80
2022/06/21 03:55:45;;;;;;;10.52;5.80;;;9.20;99.90;;;;;;5024157;28;20279;-80
2022/06/21 03:58:28;;;;;;;8.27;5.57;;;9.20;99.90;;;;;;5031321;28;20040;-80
2022/06/21 04:01:14;;;;;;;9.77;5.95;;;9.20;99.90;;;;;;5035841;28;20038;-80
2022/06/21 04:03:50;;;;;;;8.63;6.03;;;9.20;99.90;;;;;;5028769;28;20046;-80
2022/06/21 04:06:21;;;;;;;7.97;5.18;;;9.10;99.90;;;;;;5016994;28;20045;-79
2022/06/21 04:09:00;;;;;;;10.82;6.30;;;9.10;99.90;;;;;;5012659;28;20037;-80
2022/06/21 04:11:40;;;;;;;8.13;6.05;;;9.10;99.90;;;;;;5021420;28;20037;-79
2022/06/21 04:14:42;;;;;;;13.55;6.45;;;9.20;99.90;;;;;;5012609;28;20131;-79
2022/06/21 04:17:34;;;;;;;10.50;6.05;;;9.20;99.90;;;;;;5013910;28;20046;-80
2022/06/21 04:20:30;;;;;;;11.52;6.63;;;9.30;99.90;;;;;;5031833;28;20052;-80
2022/06/21 04:23:04;;;;;;;11.65;6.20;;;9.30;99.90;;;;;;5014721;28;20124;-80
2022/06/21 04:25:43;;;;;;;10.20;6.05;;;9.40;99.90;;;;;;5032512;28;20041;-80
2022/06/21 04:28:23;;;;;;;8.20;6.00;;;9.40;99.90;;;;;;5005653;28;20343;-80
2022/06/21 04:31:01;;;;;;;11.15;5.70;;;9.40;99.90;;;;;;5021447;28;20045;-80
2022/06/21 04:34:07;;;;;;;12.18;6.20;;;9.50;99.90;;;;;;5021297;28;20060;-80
2022/06/21 04:36:43;;;;;;;10.63;6.38;;;9.60;99.90;;;;;;5015856;28;20052;-80
2022/06/21 04:39:31;;;;;;;13.77;6.60;;;9.60;99.90;;;;;;5013910;28;20037;-80
2022/06/21 04:42:06;;;;;;;9.85;6.40;;;9.70;99.90;;;;;;5021276;28;20125;-80
2022/06/21 04:44:39;;;;;;;11.15;6.53;;;9.70;99.90;;;;;;5012851;28;20029;-80
2022/06/21 04:47:28;;;;;;;11.40;6.85;;;9.80;99.90;;;;;;5011149;28;20048;-80
2022/06/21 04:50:24;;;;;;;12.65;6.45;;;9.80;99.90;;;;;;5007853;28;20077;-80
2022/06/21 04:53:05;;;;;;;9.43;6.00;;;9.80;99.90;;;;;;5016049;28;20053;-80
2022/06/21 04:55:42;;;;;;;11.63;6.53;;;9.90;99.90;;;;;;5006249;28;20037;-80
2022/06/21 04:58:10;;;;;;;14.38;5.93;;;10.00;99.90;;;;;;5010405;28;20061;-81
2022/06/21 05:00:36;;;;;;;11.10;6.65;;;10.00;99.90;;;;;;5000804;28;20048;-81
2022/06/21 05:03:26;;;;;;;13.70;6.80;;;10.10;99.90;;;;;;5028515;28;20037;-80
2022/06/21 05:05:52;;;;;;;10.18;6.60;;;10.20;99.90;;;;;;5030964;28;20040;-80
2022/06/21 05:08:21;;;;;;;9.73;6.78;;;10.20;99.90;;;;;;4999584;28;20041;-80
2022/06/21 05:10:52;;;;;;;8.18;6.38;;;10.30;99.90;;;;;;5002664;28;20049;-80
2022/06/21 05:13:20;;;;;;;12.25;6.43;;;10.40;99.90;;;;;;4998445;28;20471;-80
2022/06/21 05:15:46;;;;;;;10.02;6.68;;;10.50;99.90;;;;;;5008511;28;20046;-80
2022/06/21 05:18:36;;;;;;;13.32;6.43;;;10.50;99.90;;;;;;4997972;28;20079;-80
2022/06/21 05:21:08;;;;;;;10.52;6.30;;;10.60;99.90;;;;;;5022007;28;20091;-79
2022/06/21 05:23:34;;;;;;;14.27;7.00;;;10.70;99.90;;;;;;5018216;28;20521;-81
2022/06/21 05:26:04;;;;;;;13.18;7.45;;;10.80;99.90;;;;;;5012049;28;20554;-80
2022/06/21 05:28:35;;;;;;;16.33;7.32;;;10.90;99.90;;;;;;5026725;28;20044;-80
2022/06/21 05:31:10;;;;;;;12.35;6.70;;;11.00;99.90;;;;;;5010866;28;20438;-80
2022/06/21 05:33:43;;;;;;;12.65;6.10;;;11.10;99.90;;;;;;5030254;28;20053;-80
2022/06/21 05:36:16;;;;;;;11.20;6.68;;;11.20;99.90;;;;;;5021138;28;20069;-80
2022/06/21 05:39:34;;;;;;;10.25;6.13;;;11.30;99.90;;;;;;5026396;28;20449;-80
2022/06/21 05:42:02;;;;;;;11.05;6.28;;;11.40;99.90;;;;;;5005515;28;20205;-80
2022/06/21 05:44:39;;;;;;;11.70;6.28;;;11.50;99.90;;;;;;5026311;28;20133;-80
2022/06/21 05:47:28;;;;;;;10.65;6.60;;;11.60;99.90;;;;;;5032422;28;20540;-80
2022/06/21 05:49:57;;;;;;;7.15;5.57;;;11.70;99.90;;;;;;5003498;28;20405;-80
2022/06/21 05:52:37;;;;;;;11.32;5.63;;;11.80;99.90;;;;;;5024397;28;20505;-80
2022/06/21 05:55:28;;;;;;;16.17;7.25;;;11.90;99.90;;;;;;5028370;28;20053;-80
2022/06/21 05:58:04;;;;;;;22.65;6.80;;;12.00;99.90;;;;;;5015573;28;20186;-80
2022/06/21 06:00:52;;;;;;;11.20;6.03;;;12.10;99.90;;;;;;5002404;28;20033;-81
2022/06/21 06:03:22;;;;;;;9.30;5.68;;;12.30;99.90;;;;;;5011370;28;20037;-81
2022/06/21 06:05:51;;;;;;;10.60;5.85;;;12.30;99.90;;;;;;5010758;28;20120;-80
2022/06/21 06:08:22;;;;;;;11.77;6.32;;;12.40;99.90;;;;;;5024115;28;20061;-80
2022/06/21 06:10:48;;;;;;;9.13;5.60;;;12.40;99.90;;;;;;5009287;28;20049;-80
2022/06/21 06:13:23;;;;;;;13.77;6.90;;;12.50;99.90;;;;;;5003634;28;20617;-80
2022/06/21 06:15:53;;;;;;;9.00;6.10;;;12.60;99.90;;;;;;5037402;28;20069;-80
2022/06/21 06:18:22;;;;;;;9.88;5.60;;;12.70;99.90;;;;;;5037915;28;20053;-80
2022/06/21 06:21:00;;;;;;;11.15;7.07;;;12.80;99.90;;;;;;5036350;28;20092;-80
2022/06/21 06:23:26;;;;;;;9.95;6.20;;;12.90;99.90;;;;;;5019126;28;20630;-80
2022/06/21 06:26:11;;;;;;;8.85;5.40;;;13.00;99.90;;;;;;5016159;28;20056;-80
2022/06/21 06:28:46;;;;;;;12.25;6.13;;;13.10;99.90;;;;;;5014707;28;20037;-80
2022/06/21 06:31:28;;;;;;;12.50;6.40;;;13.20;99.90;;;;;;5014777;28;20045;-80
2022/06/21 06:33:55;;;;;;;11.50;5.80;;;13.90;99.90;;;;;;5034075;28;20263;-80
2022/06/21 06:36:33;;;;;;;9.38;5.22;;;13.40;99.90;;;;;;5014772;28;20103;-80
2022/06/21 06:39:00;;;;;;;9.55;4.78;;;13.50;99.90;;;;;;5020817;28;20045;-80
2022/06/21 06:42:00;;;;;;;9.30;3.70;;;13.60;99.90;;;;;;5032187;28;20044;-79
2022/06/21 06:44:34;;;;;;;9.48;4.53;;;13.70;99.90;;;;;;5024974;28;20208;-79
2022/06/21 06:47:02;;;;;;;8.15;3.00;;;13.80;99.90;;;;;;5030641;28;20129;-79
2022/06/21 06:49:40;;;;;;;6.20;3.10;;;13.90;99.90;;;;;;5022077;28;20037;-79
2022/06/21 06:52:21;;;;;;;9.07;2.63;;;13.90;99.90;;;;;;5027258;28;20072;-79
2022/06/21 06:55:04;;;;;;;8.02;2.47;;;14.00;99.90;;;;;;5025011;28;20044;-79
2022/06/21 06:57:40;;;;;;;4.30;2.35;;;14.00;99.90;;;;;;5034198;28;20120;-79
2022/06/21 07:00:36;;;;;;;5.97;2.78;;;14.10;99.90;;;;;;5014783;28;20396;-79
2022/06/21 07:03:25;;;;;;;6.43;2.50;;;14.20;99.90;;;;;;5018015;28;20042;-79
2022/06/21 07:06:18;;;;;;;5.15;2.45;;;14.30;99.90;;;;;;5023977;28;20044;-79
2022/06/21 07:09:10;;;;;;;9.13;3.47;;;14.30;99.90;;;;;;5027279;28;20083;-79
2022/06/21 07:11:39;;;;;;;4.57;2.37;;;14.50;99.90;;;;;;5010906;28;20070;-79
2022/06/21 07:14:18;;;;;;;12.60;3.00;;;14.50;99.90;;;;;;5025206;28;20361;-79
2022/06/21 07:16:44;;;;;;;5.50;2.63;;;14.60;99.90;;;;;;5026758;28;20080;-79
2022/06/21 07:19:11;;;;;;;9.93;3.00;;;14.70;99.90;;;;;;5008915;28;20124;-79
2022/06/21 07:21:38;;;;;;;5.85;2.60;;;14.90;99.90;;;;;;5005992;28;20184;-80
2022/06/21 07:24:13;;;;;;;7.28;2.83;;;15.00;99.90;;;;;;5013844;28;20130;-79
2022/06/21 07:26:47;;;;;;;4.57;2.20;;;15.20;99.90;;;;;;5036043;28;20045;-79
2022/06/21 07:29:41;;;;;;;4.80;2.65;;;15.30;99.90;;;;;;5036258;28;20056;-79
2022/06/21 07:32:15;;;;;;;6.40;2.40;;;15.50;99.90;;;;;;5016537;28;20050;-79
2022/06/21 07:34:56;;;;;;;6.30;2.92;;;15.70;99.90;;;;;;5025966;28;20053;-79
2022/06/21 07:37:41;;;;;;;7.63;2.70;;;15.80;99.90;;;;;;5021918;28;20419;-79
2022/06/21 07:40:10;;;;;;;6.72;2.60;;;15.90;99.90;;;;;;5041658;28;20037;-79
2022/06/21 07:42:54;;;;;;;5.03;2.45;;;16.10;99.90;;;;;;5007652;28;20239;-79
2022/06/21 07:45:23;;;;;;;6.60;2.55;;;16.30;99.90;;;;;;5022390;28;20033;-81
2022/06/21 07:48:04;;;;;;;4.20;2.25;;;16.40;99.90;;;;;;5037077;28;20395;-80
2022/06/21 07:50:58;;;;;;;4.72;2.00;;;16.40;99.90;;;;;;5008340;28;20411;-80
2022/06/21 07:53:33;;;;;;;6.88;2.20;;;16.40;99.90;;;;;;5007336;28;20467;-80
2022/06/21 07:56:18;;;;;;;4.30;2.20;;;16.50;99.90;;;;;;5023108;28;20049;-80
2022/06/21 07:58:58;;;;;;;5.90;2.08;;;16.70;99.90;;;;;;5029328;28;20527;-81
2022/06/21 08:07:37;;;;;;;5.32;2.38;;;17.10;99.90;;;;;;5015851;28;20038;-80
2022/06/21 08:10:18;;;;;;;6.13;2.25;;;17.20;99.90;;;;;;5016619;28;20044;-80
2022/06/21 08:12:44;;;;;;;5.22;2.25;;;17.40;99.90;;;;;;5024452;28;20060;-80
2022/06/21 08:15:10;;;;;;;8.65;2.17;;;17.40;99.90;;;;;;5006859;28;20084;-80
2022/06/21 08:18:05;;;;;;;10.10;2.28;;;17.50;99.90;;;;;;5015543;28;20037;-81
2022/06/21 08:20:41;;;;;;;7.95;2.63;;;17.60;99.90;;;;;;4992610;28;20052;-80
2022/06/21 08:23:23;;;;;;;6.65;2.10;;;17.80;99.90;;;;;;5009315;28;20049;-80
2022/06/21 08:25:55;;;;;;;5.60;2.40;;;17.90;99.90;;;;;;5013397;28;20046;-80
2022/06/21 08:28:33;;;;;;;6.13;2.47;;;18.10;99.90;;;;;;5016919;28;20059;-80
2022/06/21 08:31:14;;;;;;;5.05;2.13;;;18.10;99.90;;;;;;5022899;28;20041;-81
2022/06/21 08:33:44;;;;;;;5.93;2.30;;;18.20;99.90;;;;;;5009382;28;20065;-80
2022/06/21 08:36:13;;;;;;;4.22;2.17;;;18.40;99.90;;;;;;5006820;28;20072;-81
2022/06/21 08:38:56;;;;;;;6.93;2.20;;;18.60;99.90;;;;;;5003763;28;20038;-82
2022/06/21 08:41:56;;;;;;;2.97;1.80;;;18.80;99.10;;;;;;5007682;28;20040;-78
2022/06/21 08:44:43;;;;;;;5.55;2.28;;;18.70;97.90;;;;;;5029705;28;20029;-79
2022/06/21 08:47:24;;;;;;;4.55;2.03;;;18.80;98.30;;;;;;5027652;28;20033;-82
2022/06/21 08:50:08;;;;;;;7.68;2.65;;;19.00;99.20;;;;;;5030044;28;20037;-82
2022/06/21 08:52:38;;;;;;;6.30;2.10;;;19.20;98.00;;;;;;5029234;28;20072;-80
2022/06/21 08:55:36;;;;;;;5.47;2.35;;;19.30;98.00;;;;;;5023487;28;20056;-81
2022/06/21 08:58:04;;;;;;;4.68;2.03;;;19.50;98.20;;;;;;4976352;28;20045;-78
2022/06/21 09:00:40;;;;;;;4.90;1.80;;;19.60;97.80;;;;;;5019224;28;20452;-78
2022/06/21 09:03:19;;;;;;;4.93;2.30;;;19.70;97.50;;;;;;5000813;28;20046;-79
2022/06/21 09:06:18;;;;;;;6.50;2.42;;;19.70;96.30;;;;;;5011873;28;20099;-79
2022/06/21 09:08:59;;;;;;;5.68;2.45;;;19.80;96.20;;;;;;5003406;28;20034;-79
2022/06/21 09:11:58;;;;;;;3.95;1.75;;;19.90;96.80;;;;;;5014469;28;20048;-80
2022/06/21 09:14:32;;;;;;;5.68;2.20;;;19.90;95.70;;;;;;5029297;28;20041;-80
2022/06/21 09:17:13;;;;;;;12.85;2.38;;;20.00;95.60;;;;;;5016475;28;20030;-78
2022/06/21 09:20:06;;;;;;;7.18;1.90;;;20.10;95.10;;;;;;5024296;28;20151;-79
2022/06/21 09:22:46;;;;;;;3.00;1.77;;;20.10;94.90;;;;;;5038832;28;20048;-84
2022/06/21 09:25:29;;;;;;;6.18;2.20;;;20.20;95.00;;;;;;5023506;28;20120;-82
2022/06/21 09:28:10;;;;;;;5.32;2.15;;;20.30;94.50;;;;;;5017145;28;20451;-82
2022/06/21 09:30:49;;;;;;;3.92;2.10;;;20.40;94.30;;;;;;5034160;28;20064;-82
2022/06/21 09:33:46;;;;;;;5.28;2.05;;;20.50;94.20;;;;;;5016527;28;20058;-80
2022/06/21 09:36:18;;;;;;;5.00;2.20;;;20.50;93.60;;;;;;5001832;28;20098;-81
2022/06/21 09:38:59;;;;;;;12.25;1.92;;;20.70;93.30;;;;;;5028469;28;20038;-78
2022/06/21 09:41:50;;;;;;;2.67;1.50;;;20.70;92.90;;;;;;5003082;28;20096;-80
2022/06/21 09:44:42;;;;;;;5.20;2.00;;;20.80;94.00;;;;;;5021253;28;20375;-80
2022/06/21 09:47:37;;;;;;;4.72;2.03;;;20.80;93.10;;;;;;5005812;28;20053;-78
2022/06/21 09:50:26;;;;;;;5.90;2.08;;;20.80;92.60;;;;;;5023060;28;20044;-79
2022/06/21 09:53:36;;;;;;;5.53;2.05;;;20.90;93.00;;;;;;5024288;28;20049;-83
2022/06/21 09:56:08;;;;;;;8.02;2.30;;;20.90;91.90;;;;;;5004465;28;20042;-80
2022/06/21 09:58:55;;;;;;;6.72;1.50;;;21.00;93.60;;;;;;5005356;28;20514;-84
2022/06/21 10:01:54;;;;;;;3.08;1.77;;;21.20;93.10;;;;;;4998617;28;20034;-80
2022/06/21 10:04:32;;;;;;;5.30;2.22;;;21.30;91.50;;;;;;5036912;28;20072;-80
2022/06/21 10:07:32;;;;;;;16.35;10.90;;;21.50;93.00;;;;;;5022766;28;20056;-79
2022/06/21 10:10:01;;;;;;;5.90;1.65;;;21.70;91.60;;;;;;5023449;28;20099;-79
2022/06/21 10:12:41;;;;;;;3.22;1.63;;;22.00;92.70;;;;;;5022737;28;20065;-79
2022/06/21 10:15:25;;;;;;;4.68;1.77;;;22.10;93.00;;;;;;5010924;28;20030;-79
2022/06/21 10:18:09;;;;;;;3.55;1.80;;;22.30;91.80;;;;;;5037042;28;20273;-79
2022/06/21 10:21:19;;;;;;;5.68;1.80;;;22.40;91.40;;;;;;5009960;28;20034;-79
2022/06/21 10:24:07;;;;;;;4.28;2.17;;;22.40;92.10;;;;;;5010462;28;20076;-79
2022/06/21 10:26:47;;;;;;;6.30;2.17;;;22.60;90.50;;;;;;5033625;28;20037;-79
2022/06/21 10:29:50;;;;;;;5.45;1.83;;;22.60;90.20;;;;;;5024037;28;20112;-79
2022/06/21 10:32:30;;;;;;;6.10;1.95;;;22.90;91.90;;;;;;5024055;28;20037;-80
2022/06/21 10:35:18;;;;;;;2.08;1.58;;;22.80;90.40;;;;;;5025477;28;20092;-80
2022/06/21 10:38:11;;;;;;;3.63;2.25;;;22.90;90.90;;;;;;5017628;28;20049;-80
2022/06/21 10:40:42;;;;;;;3.53;1.50;;;23.10;88.70;;;;;;5020903;28;20408;-79
2022/06/21 10:43:44;;;;;;;5.35;1.83;;;23.10;90.30;;;;;;5034544;28;20033;-79
2022/06/21 10:46:11;;;;;;;5.72;2.15;;;22.60;85.00;;;;;;5026663;28;20561;-80
2022/06/21 10:49:14;;;;;;;5.53;1.70;;;22.10;89.00;;;;;;5025994;28;20099;-80
2022/06/21 10:52:01;;;;;;;5.65;1.70;;;21.70;87.80;;;;;;5019120;28;20046;-79
2022/06/21 10:54:42;;;;;;;54.78;32.35;;;21.30;90.10;;;;;;5025001;28;20116;-85
2022/06/21 10:57:46;;;;;;;121.57;86.68;;;21.00;89.20;;;;;;5012974;28;20092;-85
2022/06/21 11:01:21;;;;;;;5.20;2.00;;;21.00;90.50;;;;;;4997064;28;20054;-85
2022/06/21 11:03:44;;;;;;;3.97;2.45;;;21.40;91.30;;;;;;5014507;28;20049;-84
2022/06/21 11:06:28;;;;;;;7.03;2.10;;;21.60;89.80;;;;;;5040807;28;20068;-82
2022/06/21 11:09:07;;;;;;;4.10;1.88;;;21.70;89.20;;;;;;5039351;28;20076;-80
2022/06/21 11:11:51;;;;;;;7.30;2.10;;;21.90;89.90;;;;;;5020990;28;20107;-81
2022/06/21 11:14:23;;;;;;;3.35;1.70;;;22.10;89.80;;;;;;5030512;28;20121;-76
2022/06/21 11:17:17;;;;;;;12.40;2.17;;;22.20;88.90;;;;;;5008142;28;20124;-76
2022/06/21 11:19:57;;;;;;;3.22;1.60;;;22.20;86.00;;;;;;5045997;28;20038;-76
2022/06/21 11:22:25;;;;;;;3.38;1.98;;;22.30;87.50;;;;;;5000235;28;20116;-75
2022/06/21 11:25:15;;;;;;;5.53;1.70;;;22.40;87.60;;;;;;5013842;28;20033;-75
2022/06/21 11:27:48;;;;;;;7.88;1.90;;;22.50;87.50;;;;;;5018033;28;20045;-75
2022/06/21 11:30:26;;;;;;;3.15;1.70;;;22.70;88.50;;;;;;5043529;28;20041;-75
2022/06/21 11:33:13;;;;;;;3.70;1.60;;;22.80;86.10;;;;;;5004312;28;20265;-75
2022/06/21 11:36:08;;;;;;;4.13;2.22;;;23.00;85.90;;;;;;5005711;28;20049;-75
2022/06/21 11:38:50;;;;;;;6.32;2.13;;;23.00;84.20;;;;;;5001800;28;20517;-74
2022/06/21 11:44:39;;;;;;;5.35;1.73;;;23.20;86.10;;;;;;5026504;28;20406;-74
2022/06/21 11:47:18;;;;;;;3.78;1.70;;;23.20;85.00;;;;;;5026019;28;20041;-75
2022/06/21 11:50:09;;;;;;;3.03;1.60;;;23.30;83.50;;;;;;5022918;28;20119;-75
2022/06/21 11:53:13;;;;;;;3.75;1.50;;;23.40;82.60;;;;;;5009533;28;20409;-75
2022/06/21 11:56:08;;;;;;;3.10;1.67;;;23.60;84.20;;;;;;5013270;28;20506;-75
2022/06/21 11:59:00;;;;;;;4.00;1.77;;;23.70;82.00;;;;;;5007206;28;20041;-74
2022/06/21 12:01:44;;;;;;;2.97;1.23;;;23.70;80.20;;;;;;5009524;28;20040;-74
2022/06/21 12:04:12;;;;;;;3.50;1.65;;;23.60;81.20;;;;;;5006742;28;20059;-74
2022/06/21 12:06:48;;;;;;;5.22;1.70;;;23.70;83.10;;;;;;5007526;28;20049;-74
2022/06/21 12:09:46;;;;;;;7.07;1.60;;;23.70;79.10;;;;;;5004604;28;20598;-74
2022/06/21 12:12:35;;;;;;;6.90;1.83;;;23.80;79.10;;;;;;5003828;28;20121;-74
2022/06/21 12:15:15;;;;;;;2.03;1.30;;;23.90;79.80;;;;;;5003844;28;20049;-74
2022/06/21 12:17:51;;;;;;;2.67;1.20;;;23.90;77.10;;;;;;5006156;28;20041;-74
2022/06/21 12:20:34;;;;;;;3.00;1.30;;;24.00;79.10;;;;;;5011613;28;20030;-74
2022/06/21 12:23:06;;;;;;;2.10;1.20;;;24.00;78.70;;;;;;5029867;28;20042;-74
2022/06/21 12:25:31;;;;;;;2.63;1.27;;;23.90;75.40;;;;;;5001874;28;20513;-74
2022/06/21 12:27:59;;;;;;;2.47;1.00;;;23.90;76.10;;;;;;5018237;28;20182;-74
2022/06/21 12:30:28;;;;;;;3.33;1.55;;;23.80;75.30;;;;;;4995971;28;20498;-75
2022/06/21 12:33:04;;;;;;;1.77;1.23;;;23.70;76.50;;;;;;5010459;28;20037;-74
2022/06/21 12:35:43;;;;;;;5.47;1.38;;;23.80;76.70;;;;;;5034588;28;20054;-73
2022/06/21 12:38:17;;;;;;;2.60;1.30;;;23.90;76.50;;;;;;5031136;28;20042;-73
2022/06/21 12:41:17;;;;;;;5.15;1.48;;;23.70;76.80;;;;;;5031009;28;20030;-75
2022/06/21 12:43:51;;;;;;;2.10;1.15;;;23.40;75.80;;;;;;4975969;28;20042;-75
2022/06/21 12:46:23;;;;;;;4.05;1.27;;;23.40;77.10;;;;;;5014776;28;20046;-75
2022/06/21 12:49:11;;;;;;;3.92;1.38;;;23.40;78.20;;;;;;5026749;28;20041;-75
2022/06/21 12:51:47;;;;;;;1.88;1.38;;;23.40;77.00;;;;;;5013210;28;20092;-75
2022/06/21 12:54:47;;;;;;;2.47;1.10;;;23.40;77.50;;;;;;5010191;28;20120;-75
2022/06/21 12:57:32;;;;;;;2.60;1.15;;;23.50;78.10;;;;;;5009895;28;20084;-75
2022/06/21 13:00:20;;;;;;;3.70;1.40;;;23.40;76.40;;;;;;5026713;28;20034;-75
2022/06/21 13:03:05;;;;;;;3.45;1.13;;;23.40;77.60;;;;;;5016621;28;20178;-75
2022/06/21 13:06:08;;;;;;;4.15;1.38;;;23.50;78.40;;;;;;4999654;28;20034;-75
2022/06/21 13:09:06;;;;;;;;;;;23.60;77.40;;;;;;5009173;28;20056;-75
2022/06/21 13:12:02;;;;;;;4.93;1.25;;;23.70;78.60;;;;;;5027752;28;19967;-75
2022/06/21 13:14:43;;;;;;;2.38;1.25;;;23.80;77.60;;;;;;5021021;28;20041;-75
2022/06/21 13:17:33;;;;;;;2.90;1.30;;;24.00;75.70;;;;;;5000039;28;20029;-75
2022/06/21 13:20:21;;;;;;;5.00;1.58;;;24.10;76.00;;;;;;5014963;28;20136;-76
2022/06/21 13:23:08;;;;;;;4.90;1.30;;;24.10;78.00;;;;;;5015945;28;20423;-75
2022/06/21 13:26:08;;;;;;;2.08;1.25;;;24.30;76.00;;;;;;5025144;28;20093;-75
2022/06/21 13:28:54;;;;;;;7.85;1.30;;;24.40;75.40;;;;;;5018405;28;20049;-75
2022/06/21 13:31:32;;;;;;;5.13;1.33;;;24.40;73.70;;;;;;5037206;28;20033;-76
2022/06/21 13:34:01;;;;;;;5.55;1.98;;;24.30;73.50;;;;;;5002401;28;20049;-75
2022/06/21 13:36:41;;;;;;;4.93;1.38;;;24.10;73.70;;;;;;5000929;28;20085;-75
2022/06/21 13:39:20;;;;;;;4.03;1.45;;;24.00;73.90;;;;;;5004215;28;20075;-75
2022/06/21 13:44:48;;;;;;;4.30;1.73;;;23.90;74.50;;;;;;5024056;28;20054;-75
2022/06/21 13:47:24;;;;;;;3.05;1.55;;;23.60;74.10;;;;;;5033511;28;20038;-75
2022/06/21 13:50:12;;;;;;;4.20;1.27;;;23.50;75.20;;;;;;5025775;28;20045;-75
2022/06/21 13:52:55;;;;;;;4.93;1.60;;;23.50;76.00;;;;;;5000859;28;20041;-72
2022/06/21 13:56:03;;;;;;;2.90;1.52;;;23.50;75.40;;;;;;5014082;28;20096;-72
2022/06/21 13:58:41;;;;;;;11.38;1.92;;;23.40;74.90;;;;;;5012371;28;20061;-72
2022/06/21 14:01:29;;;;;;;5.75;1.35;;;23.50;74.20;;;;;;5024599;28;20097;-72
2022/06/21 14:04:13;;;;;;;3.10;1.27;;;23.50;74.90;;;;;;5018338;28;20065;-72